My1 — 9HB4266 — position and weather

sailwx.info

Track history (hours):
 
Tides and Currents Weather Stations Pressure Air Temp Water Temp Dewpoint Dewpoint Depression Visibility Wind Speed Wind Dir Waves Ship Positions

My1

Last reported at 2018-Jun-20 01:26 UTC. Time now 2018-Jun-25 05:54 UTC.
Position N 38°20' E 015°39'.

Length 25 m.

Type: Sailing vessel. MMSI: 248000688.

Date/timePositionNaut miles runAvg speedWind from/ knotsBaromVisibWave heightAir tempDewpointWater temp
2018-Jun-20 01:26N 38°20' E 015°39'91 4.9
2018-Jun-19 07:03N 38°15' E 013°43'1 9.9
2018-Jun-19 06:59N 38°15' E 013°43'510.0
2018-Jun-19 06:29N 38°12' E 013°37'510.2
2018-Jun-19 05:59N 38°10' E 013°31'510.0
2018-Jun-19 05:29N 38°08' E 013°25'2 5.0
2018-Jun-19 04:59N 38°07' E 013°22'0 0.0
2018-Jun-19 04:29N 38°07' E 013°22'0 0.0
2018-Jun-19 04:00N 38°07' E 013°22'0 0.0
2018-Jun-19 03:29N 38°07' E 013°22'0 0.0
2018-Jun-19 02:59N 38°07' E 013°22'0 0.0
2018-Jun-19 02:29N 38°07' E 013°22'0 0.0
2018-Jun-19 01:59N 38°07' E 013°22'0 0.0
2018-Jun-19 01:29N 38°07' E 013°22'0 0.0
2018-Jun-19 01:00N 38°07' E 013°22'0 0.0
2018-Jun-19 00:29N 38°07' E 013°22'0 0.0
2018-Jun-18 23:59N 38°07' E 013°22'0 0.0
2018-Jun-18 23:29N 38°07' E 013°22'0 0.0
2018-Jun-18 22:59N 38°07' E 013°22'0 0.0
2018-Jun-18 22:29N 38°07' E 013°22'0 0.0
2018-Jun-18 21:59N 38°07' E 013°22'0 0.0
2018-Jun-18 21:29N 38°07' E 013°22'0 0.0
2018-Jun-18 20:59N 38°07' E 013°22'0 0.0
2018-Jun-18 20:29N 38°07' E 013°22'0 0.0
2018-Jun-18 19:59N 38°07' E 013°22'0 0.0
2018-Jun-18 19:29N 38°07' E 013°22'0 0.0
2018-Jun-18 18:59N 38°07' E 013°22'0 0.0
2018-Jun-18 18:29N 38°07' E 013°22'0 0.0
2018-Jun-18 18:00N 38°07' E 013°22'0 0.0
2018-Jun-18 17:29N 38°07' E 013°22'0 0.0
2018-Jun-18 16:59N 38°07' E 013°22'0 0.0
2018-Jun-18 16:29N 38°07' E 013°22'0 0.0
2018-Jun-18 15:59N 38°07' E 013°22'0 0.0
2018-Jun-18 15:29N 38°07' E 013°22'0 0.2
2018-Jun-18 15:00N 38°07' E 013°22'3 5.4
2018-Jun-18 14:25N 38°11' E 013°23'4 8.8
2018-Jun-18 14:01N 38°13' E 013°20'5 9.1
2018-Jun-18 13:30N 38°14' E 013°14'  
2018-Jun-14 02:13N 39°16' E 003°28'2 9.7
2018-Jun-14 02:00N 39°15' E 003°25'6 9.7
2018-Jun-14 01:25N 39°15' E 003°18'5 9.7
2018-Jun-14 00:56N 39°15' E 003°12'4 8.9
2018-Jun-14 00:30N 39°15' E 003°07'5 9.7
2018-Jun-14 00:00N 39°15' E 003°01'5 9.9
2018-Jun-13 23:30N 39°17' E 002°55'510.3
2018-Jun-13 23:00N 39°19' E 002°49'5 9.2
2018-Jun-13 22:30N 39°22' E 002°44'510.2
2018-Jun-13 22:00N 39°27' E 002°43'510.1
2018-Jun-13 21:30N 39°31' E 002°40'3 5.6
2018-Jun-13 20:59N 39°34' E 002°38'0 0.0
2018-Jun-13 20:29N 39°34' E 002°38'0 0.0
2018-Jun-13 19:59N 39°34' E 002°38'0 0.0
2018-Jun-13 19:29N 39°34' E 002°38'0 0.0
2018-Jun-13 18:59N 39°34' E 002°38'0 0.0
2018-Jun-13 18:29N 39°34' E 002°38'0 0.0
2018-Jun-13 17:59N 39°34' E 002°38'0 0.0
2018-Jun-13 17:29N 39°34' E 002°38'0 0.0
2018-Jun-13 16:59N 39°34' E 002°38'0 0.0
2018-Jun-13 16:29N 39°34' E 002°38'0 0.0
2018-Jun-13 15:59N 39°34' E 002°38'0 0.0
2018-Jun-13 15:29N 39°34' E 002°38'0 0.0
2018-Jun-13 14:59N 39°34' E 002°38'0 0.0
2018-Jun-13 14:29N 39°34' E 002°38'0 0.0
2018-Jun-13 13:59N 39°34' E 002°38'0 0.0
2018-Jun-13 13:29N 39°34' E 002°38'0 0.0
2018-Jun-13 12:59N 39°34' E 002°38'0 0.0
2018-Jun-13 12:29N 39°34' E 002°38'0 0.0
2018-Jun-13 11:59N 39°34' E 002°38'0 0.0
2018-Jun-13 11:29N 39°34' E 002°38'0 0.0
2018-Jun-13 10:59N 39°34' E 002°38'0 0.0
2018-Jun-13 10:29N 39°34' E 002°38'0 0.0
2018-Jun-13 09:59N 39°34' E 002°38'0 0.0
2018-Jun-13 09:29N 39°34' E 002°38'0 0.0
2018-Jun-13 08:59N 39°34' E 002°38'0 0.0
2018-Jun-13 08:29N 39°34' E 002°38'0 0.0
2018-Jun-13 07:59N 39°34' E 002°38'0 0.0
2018-Jun-13 07:26N 39°34' E 002°38'0 0.0
2018-Jun-13 06:59N 39°34' E 002°38'0 0.0
2018-Jun-13 06:29N 39°34' E 002°38'0 0.0
2018-Jun-13 05:59N 39°34' E 002°38'0 0.0
2018-Jun-13 05:29N 39°34' E 002°38'0 0.0
2018-Jun-13 04:59N 39°34' E 002°38'0 0.0
2018-Jun-13 04:29N 39°34' E 002°38'0 0.0
2018-Jun-13 03:59N 39°34' E 002°38'0 0.0
2018-Jun-13 03:29N 39°34' E 002°38'0 0.0
2018-Jun-13 02:59N 39°34' E 002°38'0 0.0
2018-Jun-13 02:29N 39°34' E 002°38'0 0.0
2018-Jun-13 01:59N 39°34' E 002°38'0 0.0
2018-Jun-13 01:29N 39°34' E 002°38'0 0.0
2018-Jun-13 00:56N 39°34' E 002°38'0 0.0
2018-Jun-13 00:29N 39°34' E 002°38'0 0.0
2018-Jun-12 23:59N 39°34' E 002°38'0 0.0
2018-Jun-12 23:29N 39°34' E 002°38'0 0.0
2018-Jun-12 22:59N 39°34' E 002°38'0 0.0
2018-Jun-12 22:29N 39°34' E 002°38'0 0.0
2018-Jun-12 21:59N 39°34' E 002°38'0 0.0
2018-Jun-12 21:29N 39°34' E 002°38'0 0.0
2018-Jun-12 20:59N 39°34' E 002°38'0 0.0
2018-Jun-12 20:29N 39°34' E 002°38'0 0.0
2018-Jun-12 19:59N 39°34' E 002°38'0 0.0
2018-Jun-12 19:29N 39°34' E 002°38'0 0.0
2018-Jun-12 18:47N 39°34' E 002°38'0 0.0
2018-Jun-12 18:23N 39°34' E 002°38'0 0.0
2018-Jun-12 17:59N 39°34' E 002°38'0 0.0
2018-Jun-12 17:29N 39°34' E 002°38'0 0.0
2018-Jun-12 16:59N 39°34' E 002°38'0 0.0
2018-Jun-12 16:29N 39°34' E 002°38'0 0.0
2018-Jun-12 15:59N 39°34' E 002°38'0 0.0
2018-Jun-12 15:29N 39°34' E 002°38'0 0.0
2018-Jun-12 14:59N 39°34' E 002°38'0 0.0
2018-Jun-12 14:29N 39°34' E 002°38'0 0.0
2018-Jun-12 13:59N 39°34' E 002°38'0 0.0
2018-Jun-12 13:29N 39°34' E 002°38'0 0.0
2018-Jun-12 12:59N 39°34' E 002°38'0 0.0
2018-Jun-12 12:29N 39°34' E 002°38'0 0.0
2018-Jun-12 11:59N 39°34' E 002°38'0 0.0
2018-Jun-12 11:26N 39°34' E 002°38'0 0.0
2018-Jun-12 10:59N 39°34' E 002°38'0 0.0
2018-Jun-12 10:29N 39°34' E 002°38'0 0.0
2018-Jun-12 09:59N 39°34' E 002°38'0 0.0
2018-Jun-12 09:29N 39°34' E 002°38'0 0.0
2018-Jun-12 08:59N 39°34' E 002°38'0 0.0
2018-Jun-12 08:26N 39°34' E 002°38'0 0.0
2018-Jun-12 07:59N 39°34' E 002°38'0 0.0
2018-Jun-12 07:29N 39°34' E 002°38'0 0.0
2018-Jun-12 06:59N 39°34' E 002°38'0 0.0
2018-Jun-12 06:29N 39°34' E 002°38'0 0.0
2018-Jun-12 05:59N 39°34' E 002°38'0 0.0
2018-Jun-12 05:29N 39°34' E 002°38'0 0.0
2018-Jun-12 04:59N 39°34' E 002°38'0 0.0
2018-Jun-12 04:29N 39°34' E 002°38'0 0.0
2018-Jun-12 03:59N 39°34' E 002°38'0 0.0
2018-Jun-12 03:29N 39°34' E 002°38'0 0.0
2018-Jun-12 02:59N 39°34' E 002°38'0 0.0
2018-Jun-12 02:29N 39°34' E 002°38'0 0.0
2018-Jun-12 01:59N 39°34' E 002°38'0 0.0
2018-Jun-12 01:29N 39°34' E 002°38'0 0.0
2018-Jun-12 00:59N 39°34' E 002°38'0 0.0
2018-Jun-12 00:29N 39°34' E 002°38'0 0.0
2018-Jun-11 23:59N 39°34' E 002°38'0 0.0
2018-Jun-11 23:29N 39°34' E 002°38'0 0.0
2018-Jun-11 22:59N 39°34' E 002°38'0 0.0
2018-Jun-11 22:29N 39°34' E 002°38'0 0.0
2018-Jun-11 21:59N 39°34' E 002°38'0 0.0
2018-Jun-11 21:29N 39°34' E 002°38'0 0.0
2018-Jun-11 20:59N 39°34' E 002°38'0 0.0
2018-Jun-11 20:26N 39°34' E 002°38'0 0.0
2018-Jun-11 19:59N 39°34' E 002°38'0 0.0
2018-Jun-11 19:29N 39°34' E 002°38'0 0.0
2018-Jun-11 18:59N 39°34' E 002°38'0 0.0
2018-Jun-11 18:29N 39°34' E 002°38'0 0.0
2018-Jun-11 17:59N 39°34' E 002°38'0 0.0
2018-Jun-11 17:29N 39°34' E 002°38'0 0.0
2018-Jun-11 16:59N 39°34' E 002°38'0 0.0
2018-Jun-11 16:29N 39°34' E 002°38'0 0.0
2018-Jun-11 15:59N 39°34' E 002°38'0 0.0
2018-Jun-11 15:29N 39°34' E 002°38'0 0.0
2018-Jun-11 14:59N 39°34' E 002°38'0 0.0
2018-Jun-11 14:29N 39°34' E 002°38'0 0.0
2018-Jun-11 13:59N 39°34' E 002°38'0 0.0
2018-Jun-11 13:29N 39°34' E 002°38'0 0.0
2018-Jun-11 12:59N 39°34' E 002°38'0 0.0
2018-Jun-11 12:29N 39°34' E 002°38'0 0.0
2018-Jun-11 11:59N 39°34' E 002°38'0 0.0
2018-Jun-11 11:29N 39°34' E 002°38'0 0.0
2018-Jun-11 10:59N 39°34' E 002°38'0 0.0
2018-Jun-11 10:29N 39°34' E 002°38'0 0.0
2018-Jun-11 09:59N 39°34' E 002°38'0 0.0
2018-Jun-11 09:29N 39°34' E 002°38'0 0.0
2018-Jun-11 08:59N 39°34' E 002°38'0 0.0
2018-Jun-11 08:29N 39°34' E 002°38'0 0.0
2018-Jun-11 07:59N 39°34' E 002°38'0 0.0
2018-Jun-11 07:23N 39°34' E 002°38'0 0.0
2018-Jun-11 06:59N 39°34' E 002°38'0 0.0
2018-Jun-11 06:29N 39°34' E 002°38'0 0.0
2018-Jun-11 05:59N 39°34' E 002°38'0 0.0
2018-Jun-11 05:29N 39°34' E 002°38'0 0.0
2018-Jun-11 04:59N 39°34' E 002°38'0 0.0
2018-Jun-11 04:29N 39°34' E 002°38'0 0.0
2018-Jun-11 03:59N 39°34' E 002°38'0 0.0
2018-Jun-11 03:29N 39°34' E 002°38'0 0.0
2018-Jun-11 02:59N 39°34' E 002°38'0 0.0
2018-Jun-11 02:29N 39°34' E 002°38'0 0.0
2018-Jun-11 01:59N 39°34' E 002°38'0 0.0
2018-Jun-11 01:29N 39°34' E 002°38'0 0.0
2018-Jun-11 00:59N 39°34' E 002°38'0 0.0
2018-Jun-11 00:29N 39°34' E 002°38'0 0.0
2018-Jun-10 23:59N 39°34' E 002°38'0 0.0
2018-Jun-10 23:29N 39°34' E 002°38'0 0.0
2018-Jun-10 22:59N 39°34' E 002°38'0 0.0
2018-Jun-10 22:29N 39°34' E 002°38'0 0.0
2018-Jun-10 21:59N 39°34' E 002°38'0 0.0
2018-Jun-10 21:29N 39°34' E 002°38'0 0.0
2018-Jun-10 20:59N 39°34' E 002°38'0 0.0
2018-Jun-10 20:29N 39°34' E 002°38'0 0.0
2018-Jun-10 19:59N 39°34' E 002°38'0 0.0
2018-Jun-10 19:29N 39°34' E 002°38'0 0.0
2018-Jun-10 18:59N 39°34' E 002°38'0 0.0
2018-Jun-10 18:29N 39°34' E 002°38'0 0.0
2018-Jun-10 17:59N 39°34' E 002°38'0 0.0
2018-Jun-10 17:26N 39°34' E 002°38'0 0.0
2018-Jun-10 16:59N 39°34' E 002°38'0 0.0
2018-Jun-10 16:29N 39°34' E 002°38'0 0.0
2018-Jun-10 15:59N 39°34' E 002°38'0 0.0
2018-Jun-10 15:29N 39°34' E 002°38'0 0.0
2018-Jun-10 14:59N 39°34' E 002°38'0 0.0
2018-Jun-10 14:29N 39°34' E 002°38'0 0.0
2018-Jun-10 13:29N 39°34' E 002°38'0 0.0
2018-Jun-10 12:59N 39°34' E 002°38'0 0.0
2018-Jun-10 12:29N 39°34' E 002°38'0 0.0
2018-Jun-10 11:59N 39°34' E 002°38'0 0.0
2018-Jun-10 11:29N 39°34' E 002°38'0 0.0
2018-Jun-10 10:59N 39°34' E 002°38'0 0.0
2018-Jun-10 10:29N 39°34' E 002°38'0 0.0
2018-Jun-10 09:59N 39°34' E 002°38'0 0.0
2018-Jun-10 09:29N 39°34' E 002°38'0 0.0
2018-Jun-10 08:59N 39°34' E 002°38'0 0.0
2018-Jun-10 08:29N 39°34' E 002°38'0 0.0
2018-Jun-10 07:59N 39°34' E 002°38'0 0.0
2018-Jun-10 07:29N 39°34' E 002°38'0 0.0
2018-Jun-10 06:59N 39°34' E 002°38'0 0.0
2018-Jun-10 06:29N 39°34' E 002°38'0 0.0
2018-Jun-10 05:59N 39°34' E 002°38'0 0.0
2018-Jun-10 05:29N 39°34' E 002°38'0 0.0
2018-Jun-10 04:59N 39°34' E 002°38'0 0.0
2018-Jun-10 04:29N 39°34' E 002°38'0 0.0
2018-Jun-10 03:59N 39°34' E 002°38'0 0.0
2018-Jun-10 03:29N 39°34' E 002°38'0 0.0
2018-Jun-10 02:59N 39°34' E 002°38'0 0.0
2018-Jun-10 02:29N 39°34' E 002°38'0 0.0
2018-Jun-10 01:59N 39°34' E 002°38'0 0.0
2018-Jun-10 01:29N 39°34' E 002°38'  
Track history (hours):
 
Tides and Currents Weather Stations Pressure Air Temp Water Temp Dewpoint Dewpoint Depression Visibility Wind Speed Wind Dir Waves Ship Positions

My1

Last reported at 2018-Jun-20 01:26 UTC. Time now 2018-Jun-25 05:54 UTC.
Position N 38°20' E 015°39'.

Length 25 m.

Type: Sailing vessel. MMSI: 248000688.

Date/timePositionNaut miles runAvg speedWind from/ knotsBaromVisibWave heightAir tempDewpointWater temp
2018-Jun-20 01:26N 38°20' E 015°39'91 4.9
2018-Jun-19 07:03N 38°15' E 013°43'1 9.9
2018-Jun-19 06:59N 38°15' E 013°43'510.0
2018-Jun-19 06:29N 38°12' E 013°37'510.2
2018-Jun-19 05:59N 38°10' E 013°31'510.0
2018-Jun-19 05:29N 38°08' E 013°25'2 5.0
2018-Jun-19 04:59N 38°07' E 013°22'0 0.0
2018-Jun-19 04:29N 38°07' E 013°22'0 0.0
2018-Jun-19 04:00N 38°07' E 013°22'0 0.0
2018-Jun-19 03:29N 38°07' E 013°22'0 0.0
2018-Jun-19 02:59N 38°07' E 013°22'0 0.0
2018-Jun-19 02:29N 38°07' E 013°22'0 0.0
2018-Jun-19 01:59N 38°07' E 013°22'0 0.0
2018-Jun-19 01:29N 38°07' E 013°22'0 0.0
2018-Jun-19 01:00N 38°07' E 013°22'0 0.0
2018-Jun-19 00:29N 38°07' E 013°22'0 0.0
2018-Jun-18 23:59N 38°07' E 013°22'0 0.0
2018-Jun-18 23:29N 38°07' E 013°22'0 0.0
2018-Jun-18 22:59N 38°07' E 013°22'0 0.0
2018-Jun-18 22:29N 38°07' E 013°22'0 0.0
2018-Jun-18 21:59N 38°07' E 013°22'0 0.0
2018-Jun-18 21:29N 38°07' E 013°22'0 0.0
2018-Jun-18 20:59N 38°07' E 013°22'0 0.0
2018-Jun-18 20:29N 38°07' E 013°22'0 0.0
2018-Jun-18 19:59N 38°07' E 013°22'0 0.0
2018-Jun-18 19:29N 38°07' E 013°22'0 0.0
2018-Jun-18 18:59N 38°07' E 013°22'0 0.0
2018-Jun-18 18:29N 38°07' E 013°22'0 0.0
2018-Jun-18 18:00N 38°07' E 013°22'0 0.0
2018-Jun-18 17:29N 38°07' E 013°22'0 0.0
2018-Jun-18 16:59N 38°07' E 013°22'0 0.0
2018-Jun-18 16:29N 38°07' E 013°22'0 0.0
2018-Jun-18 15:59N 38°07' E 013°22'0 0.0
2018-Jun-18 15:29N 38°07' E 013°22'0 0.2
2018-Jun-18 15:00N 38°07' E 013°22'3 5.4
2018-Jun-18 14:25N 38°11' E 013°23'4 8.8
2018-Jun-18 14:01N 38°13' E 013°20'5 9.1
2018-Jun-18 13:30N 38°14' E 013°14'  
2018-Jun-14 02:13N 39°16' E 003°28'2 9.7
2018-Jun-14 02:00N 39°15' E 003°25'6 9.7
2018-Jun-14 01:25N 39°15' E 003°18'5 9.7
2018-Jun-14 00:56N 39°15' E 003°12'4 8.9
2018-Jun-14 00:30N 39°15' E 003°07'5 9.7
2018-Jun-14 00:00N 39°15' E 003°01'5 9.9
2018-Jun-13 23:30N 39°17' E 002°55'510.3
2018-Jun-13 23:00N 39°19' E 002°49'5 9.2
2018-Jun-13 22:30N 39°22' E 002°44'510.2
2018-Jun-13 22:00N 39°27' E 002°43'510.1
2018-Jun-13 21:30N 39°31' E 002°40'3 5.6
2018-Jun-13 20:59N 39°34' E 002°38'0 0.0
2018-Jun-13 20:29N 39°34' E 002°38'0 0.0
2018-Jun-13 19:59N 39°34' E 002°38'0 0.0
2018-Jun-13 19:29N 39°34' E 002°38'0 0.0
2018-Jun-13 18:59N 39°34' E 002°38'0 0.0
2018-Jun-13 18:29N 39°34' E 002°38'0 0.0
2018-Jun-13 17:59N 39°34' E 002°38'0 0.0
2018-Jun-13 17:29N 39°34' E 002°38'0 0.0
2018-Jun-13 16:59N 39°34' E 002°38'0 0.0
2018-Jun-13 16:29N 39°34' E 002°38'0 0.0
2018-Jun-13 15:59N 39°34' E 002°38'0 0.0
2018-Jun-13 15:29N 39°34' E 002°38'0 0.0
2018-Jun-13 14:59N 39°34' E 002°38'0 0.0
2018-Jun-13 14:29N 39°34' E 002°38'0 0.0
2018-Jun-13 13:59N 39°34' E 002°38'0 0.0
2018-Jun-13 13:29N 39°34' E 002°38'0 0.0
2018-Jun-13 12:59N 39°34' E 002°38'0 0.0
2018-Jun-13 12:29N 39°34' E 002°38'0 0.0
2018-Jun-13 11:59N 39°34' E 002°38'0 0.0
2018-Jun-13 11:29N 39°34' E 002°38'0 0.0
2018-Jun-13 10:59N 39°34' E 002°38'0 0.0
2018-Jun-13 10:29N 39°34' E 002°38'0 0.0
2018-Jun-13 09:59N 39°34' E 002°38'0 0.0
2018-Jun-13 09:29N 39°34' E 002°38'0 0.0
2018-Jun-13 08:59N 39°34' E 002°38'0 0.0
2018-Jun-13 08:29N 39°34' E 002°38'0 0.0
2018-Jun-13 07:59N 39°34' E 002°38'0 0.0
2018-Jun-13 07:26N 39°34' E 002°38'0 0.0
2018-Jun-13 06:59N 39°34' E 002°38'0 0.0
2018-Jun-13 06:29N 39°34' E 002°38'0 0.0
2018-Jun-13 05:59N 39°34' E 002°38'0 0.0
2018-Jun-13 05:29N 39°34' E 002°38'0 0.0
2018-Jun-13 04:59N 39°34' E 002°38'0 0.0
2018-Jun-13 04:29N 39°34' E 002°38'0 0.0
2018-Jun-13 03:59N 39°34' E 002°38'0 0.0
2018-Jun-13 03:29N 39°34' E 002°38'0 0.0
2018-Jun-13 02:59N 39°34' E 002°38'0 0.0
2018-Jun-13 02:29N 39°34' E 002°38'0 0.0
2018-Jun-13 01:59N 39°34' E 002°38'0 0.0
2018-Jun-13 01:29N 39°34' E 002°38'0 0.0
2018-Jun-13 00:56N 39°34' E 002°38'0 0.0
2018-Jun-13 00:29N 39°34' E 002°38'0 0.0
2018-Jun-12 23:59N 39°34' E 002°38'0 0.0
2018-Jun-12 23:29N 39°34' E 002°38'0 0.0
2018-Jun-12 22:59N 39°34' E 002°38'0 0.0
2018-Jun-12 22:29N 39°34' E 002°38'0 0.0
2018-Jun-12 21:59N 39°34' E 002°38'0 0.0
2018-Jun-12 21:29N 39°34' E 002°38'0 0.0
2018-Jun-12 20:59N 39°34' E 002°38'0 0.0
2018-Jun-12 20:29N 39°34' E 002°38'0 0.0
2018-Jun-12 19:59N 39°34' E 002°38'0 0.0
2018-Jun-12 19:29N 39°34' E 002°38'0 0.0
2018-Jun-12 18:47N 39°34' E 002°38'0 0.0
2018-Jun-12 18:23N 39°34' E 002°38'0 0.0
2018-Jun-12 17:59N 39°34' E 002°38'0 0.0
2018-Jun-12 17:29N 39°34' E 002°38'0 0.0
2018-Jun-12 16:59N 39°34' E 002°38'0 0.0
2018-Jun-12 16:29N 39°34' E 002°38'0 0.0
2018-Jun-12 15:59N 39°34' E 002°38'0 0.0
2018-Jun-12 15:29N 39°34' E 002°38'0 0.0
2018-Jun-12 14:59N 39°34' E 002°38'0 0.0
2018-Jun-12 14:29N 39°34' E 002°38'0 0.0
2018-Jun-12 13:59N 39°34' E 002°38'0 0.0
2018-Jun-12 13:29N 39°34' E 002°38'0 0.0
2018-Jun-12 12:59N 39°34' E 002°38'0 0.0
2018-Jun-12 12:29N 39°34' E 002°38'0 0.0
2018-Jun-12 11:59N 39°34' E 002°38'0 0.0
2018-Jun-12 11:26N 39°34' E 002°38'0 0.0
2018-Jun-12 10:59N 39°34' E 002°38'0 0.0
2018-Jun-12 10:29N 39°34' E 002°38'0 0.0
2018-Jun-12 09:59N 39°34' E 002°38'0 0.0
2018-Jun-12 09:29N 39°34' E 002°38'0 0.0
2018-Jun-12 08:59N 39°34' E 002°38'0 0.0
2018-Jun-12 08:26N 39°34' E 002°38'0 0.0
2018-Jun-12 07:59N 39°34' E 002°38'0 0.0
2018-Jun-12 07:29N 39°34' E 002°38'0 0.0
2018-Jun-12 06:59N 39°34' E 002°38'0 0.0
2018-Jun-12 06:29N 39°34' E 002°38'0 0.0
2018-Jun-12 05:59N 39°34' E 002°38'0 0.0
2018-Jun-12 05:29N 39°34' E 002°38'0 0.0
2018-Jun-12 04:59N 39°34' E 002°38'0 0.0
2018-Jun-12 04:29N 39°34' E 002°38'0 0.0
2018-Jun-12 03:59N 39°34' E 002°38'0 0.0
2018-Jun-12 03:29N 39°34' E 002°38'0 0.0
2018-Jun-12 02:59N 39°34' E 002°38'0 0.0
2018-Jun-12 02:29N 39°34' E 002°38'0 0.0
2018-Jun-12 01:59N 39°34' E 002°38'0 0.0
2018-Jun-12 01:29N 39°34' E 002°38'0 0.0
2018-Jun-12 00:59N 39°34' E 002°38'0 0.0
2018-Jun-12 00:29N 39°34' E 002°38'0 0.0
2018-Jun-11 23:59N 39°34' E 002°38'0 0.0
2018-Jun-11 23:29N 39°34' E 002°38'0 0.0
2018-Jun-11 22:59N 39°34' E 002°38'0 0.0
2018-Jun-11 22:29N 39°34' E 002°38'0 0.0
2018-Jun-11 21:59N 39°34' E 002°38'0 0.0
2018-Jun-11 21:29N 39°34' E 002°38'0 0.0
2018-Jun-11 20:59N 39°34' E 002°38'0 0.0
2018-Jun-11 20:26N 39°34' E 002°38'0 0.0
2018-Jun-11 19:59N 39°34' E 002°38'0 0.0
2018-Jun-11 19:29N 39°34' E 002°38'0 0.0
2018-Jun-11 18:59N 39°34' E 002°38'0 0.0
2018-Jun-11 18:29N 39°34' E 002°38'0 0.0
2018-Jun-11 17:59N 39°34' E 002°38'0 0.0
2018-Jun-11 17:29N 39°34' E 002°38'0 0.0
2018-Jun-11 16:59N 39°34' E 002°38'0 0.0
2018-Jun-11 16:29N 39°34' E 002°38'0 0.0
2018-Jun-11 15:59N 39°34' E 002°38'0 0.0
2018-Jun-11 15:29N 39°34' E 002°38'0 0.0
2018-Jun-11 14:59N 39°34' E 002°38'0 0.0
2018-Jun-11 14:29N 39°34' E 002°38'0 0.0
2018-Jun-11 13:59N 39°34' E 002°38'0 0.0
2018-Jun-11 13:29N 39°34' E 002°38'0 0.0
2018-Jun-11 12:59N 39°34' E 002°38'0 0.0
2018-Jun-11 12:29N 39°34' E 002°38'0 0.0
2018-Jun-11 11:59N 39°34' E 002°38'0 0.0
2018-Jun-11 11:29N 39°34' E 002°38'0 0.0
2018-Jun-11 10:59N 39°34' E 002°38'0 0.0
2018-Jun-11 10:29N 39°34' E 002°38'0 0.0
2018-Jun-11 09:59N 39°34' E 002°38'0 0.0
2018-Jun-11 09:29N 39°34' E 002°38'0 0.0
2018-Jun-11 08:59N 39°34' E 002°38'0 0.0
2018-Jun-11 08:29N 39°34' E 002°38'0 0.0
2018-Jun-11 07:59N 39°34' E 002°38'0 0.0
2018-Jun-11 07:23N 39°34' E 002°38'0 0.0
2018-Jun-11 06:59N 39°34' E 002°38'0 0.0
2018-Jun-11 06:29N 39°34' E 002°38'0 0.0
2018-Jun-11 05:59N 39°34' E 002°38'0 0.0
2018-Jun-11 05:29N 39°34' E 002°38'0 0.0
2018-Jun-11 04:59N 39°34' E 002°38'0 0.0
2018-Jun-11 04:29N 39°34' E 002°38'0 0.0
2018-Jun-11 03:59N 39°34' E 002°38'0 0.0
2018-Jun-11 03:29N 39°34' E 002°38'0 0.0
2018-Jun-11 02:59N 39°34' E 002°38'0 0.0
2018-Jun-11 02:29N 39°34' E 002°38'0 0.0
2018-Jun-11 01:59N 39°34' E 002°38'0 0.0
2018-Jun-11 01:29N 39°34' E 002°38'0 0.0
2018-Jun-11 00:59N 39°34' E 002°38'0 0.0
2018-Jun-11 00:29N 39°34' E 002°38'0 0.0
2018-Jun-10 23:59N 39°34' E 002°38'0 0.0
2018-Jun-10 23:29N 39°34' E 002°38'0 0.0
2018-Jun-10 22:59N 39°34' E 002°38'0 0.0
2018-Jun-10 22:29N 39°34' E 002°38'0 0.0
2018-Jun-10 21:59N 39°34' E 002°38'0 0.0
2018-Jun-10 21:29N 39°34' E 002°38'0 0.0
2018-Jun-10 20:59N 39°34' E 002°38'0 0.0
2018-Jun-10 20:29N 39°34' E 002°38'0 0.0
2018-Jun-10 19:59N 39°34' E 002°38'0 0.0
2018-Jun-10 19:29N 39°34' E 002°38'0 0.0
2018-Jun-10 18:59N 39°34' E 002°38'0 0.0
2018-Jun-10 18:29N 39°34' E 002°38'0 0.0
2018-Jun-10 17:59N 39°34' E 002°38'0 0.0
2018-Jun-10 17:26N 39°34' E 002°38'0 0.0
2018-Jun-10 16:59N 39°34' E 002°38'0 0.0
2018-Jun-10 16:29N 39°34' E 002°38'0 0.0
2018-Jun-10 15:59N 39°34' E 002°38'0 0.0
2018-Jun-10 15:29N 39°34' E 002°38'0 0.0
2018-Jun-10 14:59N 39°34' E 002°38'0 0.0
2018-Jun-10 14:29N 39°34' E 002°38'0 0.0
2018-Jun-10 13:29N 39°34' E 002°38'0 0.0
2018-Jun-10 12:59N 39°34' E 002°38'0 0.0
2018-Jun-10 12:29N 39°34' E 002°38'0 0.0
2018-Jun-10 11:59N 39°34' E 002°38'0 0.0
2018-Jun-10 11:29N 39°34' E 002°38'0 0.0
2018-Jun-10 10:59N 39°34' E 002°38'0 0.0
2018-Jun-10 10:29N 39°34' E 002°38'0 0.0
2018-Jun-10 09:59N 39°34' E 002°38'0 0.0
2018-Jun-10 09:29N 39°34' E 002°38'0 0.0
2018-Jun-10 08:59N 39°34' E 002°38'0 0.0
2018-Jun-10 08:29N 39°34' E 002°38'0 0.0
2018-Jun-10 07:59N 39°34' E 002°38'0 0.0
2018-Jun-10 07:29N 39°34' E 002°38'0 0.0
2018-Jun-10 06:59N 39°34' E 002°38'0 0.0
2018-Jun-10 06:29N 39°34' E 002°38'0 0.0
2018-Jun-10 05:59N 39°34' E 002°38'0 0.0
2018-Jun-10 05:29N 39°34' E 002°38'0 0.0
2018-Jun-10 04:59N 39°34' E 002°38'0 0.0
2018-Jun-10 04:29N 39°34' E 002°38'0 0.0
2018-Jun-10 03:59N 39°34' E 002°38'0 0.0
2018-Jun-10 03:29N 39°34' E 002°38'0 0.0
2018-Jun-10 02:59N 39°34' E 002°38'0 0.0
2018-Jun-10 02:29N 39°34' E 002°38'0 0.0
2018-Jun-10 01:59N 39°34' E 002°38'0 0.0
2018-Jun-10 01:29N 39°34' E 002°38'  

Dump ship's entire track history